Time;durP1;ratioP1;P1;durP2;ratioP2;P2;SDS_P1;SDS_P2;PMS_P1;PMS_P2;Temp;Humidity;BMP_temperature;BMP_pressure;BME280_temperature;BME280_humidity;BME280_pressure;Samples;Min_cycle;Max_cycle;Signal;HPM_P1;HPM_P2
2023/11/10 00:02:17;;;;;;;9.05;2.83;;;;;;;;;;10536169;27;20040;-72
2023/11/10 00:07:20;;;;;;;16.55;4.65;;;;;;;;;;10533237;28;20036;-72
2023/11/10 00:12:24;;;;;;;10.63;3.55;;;;;;;;;;10532975;28;20133;-73
2023/11/10 00:17:27;;;;;;;6.38;2.60;;;;;;;;;;10534829;28;20535;-72
2023/11/10 00:22:31;;;;;;;1.85;0.90;;;;;;;;;;10537902;28;20115;-73
2023/11/10 00:27:35;;;;;;;3.33;1.55;;;;;;;;;;10533519;27;20154;-72
2023/11/10 00:32:39;;;;;;;5.22;1.42;;;;;;;;;;10544520;28;20041;-71
2023/11/10 00:37:42;;;;;;;2.35;1.40;;;;;;;;;;10533575;28;20040;-71
2023/11/10 00:42:46;;;;;;;2.33;1.40;;;;;;;;;;10534615;27;20062;-71
2023/11/10 00:47:48;;;;;;;;;;;;;;;;;;10537565;28;20157;-72
2023/11/10 00:52:51;;;;;;;1.55;0.80;;;;;;;;;;10538651;28;19927;-71
2023/11/10 00:57:55;;;;;;;1.90;1.10;;;;;;;;;;10539402;27;20097;-71
2023/11/10 01:02:58;;;;;;;0.68;0.60;;;;;;;;;;10538710;27;20039;-72
2023/11/10 01:08:01;;;;;;;3.05;1.33;;;;;;;;;;10535304;27;20133;-73
2023/11/10 01:13:05;;;;;;;2.28;1.08;;;;;;;;;;10542129;28;20043;-71
2023/11/10 01:18:07;;;;;;;;;;;;;;;;;;10536190;28;20430;-72
2023/11/10 01:23:10;;;;;;;2.95;1.10;;;;;;;;;;10543107;28;19936;-72
2023/11/10 01:28:14;;;;;;;1.83;1.27;;;;;;;;;;10538474;28;20040;-72
2023/11/10 01:33:16;;;;;;;5.40;1.92;;;;;;;;;;10534736;28;22090;-73
2023/11/10 01:38:20;;;;;;;2.00;1.23;;;;;;;;;;10514871;28;20520;-72
2023/11/10 01:43:24;;;;;;;4.30;1.55;;;;;;;;;;10538215;28;20078;-73
2023/11/10 01:48:27;;;;;;;1.83;1.13;;;;;;;;;;10538146;28;20384;-74
2023/11/10 01:53:31;;;;;;;3.35;1.63;;;;;;;;;;10531397;28;20048;-71
2023/11/10 01:58:36;;;;;;;1.13;0.35;;;;;;;;;;10538176;28;20048;-73
2023/11/10 02:03:39;;;;;;;;;;;;;;;;;;10550583;27;20047;-72
2023/11/10 02:08:41;;;;;;;5.28;2.25;;;;;;;;;;10538740;27;20289;-71
2023/11/10 02:13:45;;;;;;;2.05;1.27;;;;;;;;;;10542841;28;20038;-71
2023/11/10 02:18:49;;;;;;;2.17;1.13;;;;;;;;;;10550842;27;20048;-72
2023/11/10 02:23:53;;;;;;;2.60;1.17;;;;;;;;;;10550593;27;20051;-73
2023/11/10 02:28:57;;;;;;;4.18;1.73;;;;;;;;;;10551284;27;20099;-71
2023/11/10 02:34:00;;;;;;;1.15;1.00;;;;;;;;;;10542057;28;20081;-74
2023/11/10 02:39:04;;;;;;;4.22;1.67;;;;;;;;;;10543556;28;20072;-73
2023/11/10 02:44:10;;;;;;;3.75;2.00;;;;;;;;;;10543284;27;20040;-73
2023/11/10 02:49:13;;;;;;;2.17;1.38;;;;;;;;;;10539902;27;20043;-73
2023/11/10 02:54:15;;;;;;;3.97;1.90;;;;;;;;;;10545831;27;20040;-74
2023/11/10 02:59:19;;;;;;;2.60;1.40;;;;;;;;;;10540976;27;20044;-73
2023/11/10 03:04:26;;;;;;;1.83;1.02;;;;;;;;;;10544068;28;20044;-73
2023/11/10 03:09:29;;;;;;;3.45;0.73;;;;;;;;;;10545734;28;20097;-72
2023/11/10 03:14:33;;;;;;;2.67;1.38;;;;;;;;;;10534481;28;20044;-72
2023/11/10 03:19:36;;;;;;;;;;;;;;;;;;10538684;28;20068;-72
2023/11/10 03:24:40;;;;;;;4.43;1.77;;;;;;;;;;10537493;27;20365;-72
2023/11/10 03:29:44;;;;;;;3.13;1.73;;;;;;;;;;10515739;27;20032;-72
2023/11/10 03:34:47;;;;;;;4.32;2.05;;;;;;;;;;10539021;27;20059;-72
2023/11/10 03:39:50;;;;;;;4.97;2.17;;;;;;;;;;10534637;28;20128;-72
2023/11/10 03:44:54;;;;;;;4.88;2.17;;;;;;;;;;10541369;27;20052;-71
2023/11/10 03:49:57;;;;;;;;;;;;;;;;;;10522484;28;20040;-71
2023/11/10 03:54:59;;;;;;;4.57;1.92;;;;;;;;;;10541324;28;19920;-72
2023/11/10 04:00:04;;;;;;;5.82;2.03;;;;;;;;;;10547144;27;20131;-71
2023/11/10 04:05:08;;;;;;;4.22;2.38;;;;;;;;;;10537409;27;20398;-72
2023/11/10 04:10:12;;;;;;;3.60;2.10;;;;;;;;;;10536954;27;20035;-73
2023/11/10 04:15:17;;;;;;;3.78;1.75;;;;;;;;;;10534152;27;20385;-71
2023/11/10 04:20:19;;;;;;;3.35;1.67;;;;;;;;;;10537785;28;20568;-71
2023/11/10 04:25:22;;;;;;;4.82;1.95;;;;;;;;;;10539872;27;20803;-71
2023/11/10 04:30:28;;;;;;;4.43;1.92;;;;;;;;;;10532565;28;20074;-71
2023/11/10 04:35:31;;;;;;;4.50;1.90;;;;;;;;;;10532150;27;20508;-71
2023/11/10 04:40:33;;;;;;;3.05;1.75;;;;;;;;;;10527710;28;20062;-72
2023/11/10 04:45:37;;;;;;;4.15;1.98;;;;;;;;;;10537424;27;20044;-73
2023/11/10 04:50:40;;;;;;;2.90;1.70;;;;;;;;;;10537461;28;20040;-75
2023/11/10 04:55:43;;;;;;;4.60;1.80;;;;;;;;;;10535659;28;20054;-73
2023/11/10 05:00:47;;;;;;;4.93;1.80;;;;;;;;;;10540407;27;20141;-73
2023/11/10 05:05:50;;;;;;;2.92;2.05;;;;;;;;;;10542082;28;20063;-72
2023/11/10 05:10:53;;;;;;;7.28;1.77;;;;;;;;;;10534157;28;20174;-72
2023/11/10 05:15:57;;;;;;;4.35;1.40;;;;;;;;;;10544653;28;20126;-72
2023/11/10 05:20:59;;;;;;;;;;;;;;;;;;10529673;28;20105;-72
2023/11/10 05:26:02;;;;;;;3.47;1.92;;;;;;;;;;10536351;28;19938;-72
2023/11/10 05:31:06;;;;;;;3.00;1.85;;;;;;;;;;10536983;28;20043;-72
2023/11/10 05:36:09;;;;;;;;;;;;;;;;;;10539722;27;20094;-73
2023/11/10 05:41:11;;;;;;;3.35;1.70;;;;;;;;;;10545167;27;19920;-73
2023/11/10 05:46:15;;;;;;;3.33;1.70;;;;;;;;;;10536507;28;20734;-71
2023/11/10 05:51:18;;;;;;;4.80;1.70;;;;;;;;;;10539552;27;20131;-72
2023/11/10 05:56:23;;;;;;;2.30;1.55;;;;;;;;;;10540420;27;20047;-72
2023/11/10 06:01:28;;;;;;;2.70;1.40;;;;;;;;;;10547311;27;20127;-74
2023/11/10 06:06:30;;;;;;;2.17;1.33;;;;;;;;;;10539905;27;20043;-72
2023/11/10 06:11:34;;;;;;;2.30;1.17;;;;;;;;;;10541182;28;20251;-73
2023/11/10 06:16:55;;;;;;;3.85;1.90;;;;;;;;;;10547693;27;20465;-72
2023/11/10 06:21:58;;;;;;;;;;;;;;;;;;10542940;28;20086;-72
2023/11/10 06:27:01;;;;;;;4.13;2.00;;;;;;;;;;10543422;27;19927;-72
2023/11/10 06:32:07;;;;;;;5.50;1.75;;;;;;;;;;10535375;28;21726;-72
2023/11/10 06:37:12;;;;;;;3.63;2.00;;;;;;;;;;10543785;28;20051;-73
2023/11/10 06:42:15;;;;;;;3.53;0.90;;;;;;;;;;10535732;27;20101;-73
2023/11/10 06:47:19;;;;;;;3.15;1.70;;;;;;;;;;10541935;27;20550;-72
2023/11/10 06:52:22;;;;;;;1.52;1.08;;;;;;;;;;10533073;28;20089;-73
2023/11/10 06:57:26;;;;;;;2.22;0.90;;;;;;;;;;10530284;27;20050;-72
2023/11/10 07:02:30;;;;;;;2.58;1.25;;;;;;;;;;10539678;28;20044;-72
2023/11/10 07:07:33;;;;;;;;;;;;;;;;;;10542384;28;20486;-72
2023/11/10 07:12:36;;;;;;;1.35;0.85;;;;;;;;;;10549043;27;19996;-73
2023/11/10 07:17:41;;;;;;;1.00;0.90;;;;;;;;;;10544028;27;20142;-72
2023/11/10 07:22:44;;;;;;;2.03;1.27;;;;;;;;;;10538345;28;20050;-73
2023/11/10 07:27:47;;;;;;;8.60;1.90;;;;;;;;;;10544047;28;20170;-74
2023/11/10 07:32:51;;;;;;;2.17;1.60;;;;;;;;;;10538639;27;20516;-73
2023/11/10 07:37:54;;;;;;;1.98;1.40;;;;;;;;;;10515752;28;20048;-73
2023/11/10 07:42:56;;;;;;;1.40;1.30;;;;;;;;;;10525735;28;20560;-73
2023/11/10 07:48:01;;;;;;;4.47;1.47;;;;;;;;;;10533986;28;20047;-74
2023/11/10 07:53:03;;;;;;;2.13;1.52;;;;;;;;;;10538165;27;20072;-74
2023/11/10 07:58:06;;;;;;;2.30;1.20;;;;;;;;;;10533631;27;20052;-73
2023/11/10 08:03:10;;;;;;;2.35;1.58;;;;;;;;;;10536740;28;20593;-74
2023/11/10 08:08:13;;;;;;;2.65;1.30;;;;;;;;;;10545068;27;20137;-72
2023/11/10 08:13:16;;;;;;;2.33;1.43;;;;;;;;;;10540762;28;20063;-74
2023/11/10 08:18:21;;;;;;;1.30;1.07;;;;;;;;;;10535083;28;20126;-74
2023/11/10 08:23:23;;;;;;;2.80;1.13;;;;;;;;;;10544040;27;20558;-74
2023/11/10 08:28:26;;;;;;;1.45;0.70;;;;;;;;;;10532143;27;20083;-73
2023/11/10 08:33:30;;;;;;;2.70;0.75;;;;;;;;;;10532967;28;20054;-74
2023/11/10 08:38:33;;;;;;;1.45;0.52;;;;;;;;;;10533139;28;20047;-72
2023/11/10 08:43:37;;;;;;;1.95;0.88;;;;;;;;;;10532912;28;20039;-72
2023/11/10 08:48:41;;;;;;;0.70;0.70;;;;;;;;;;10537142;28;20118;-73
2023/11/10 08:53:44;;;;;;;2.47;0.50;;;;;;;;;;10538436;28;20067;-73
2023/11/10 08:58:46;;;;;;;1.48;0.60;;;;;;;;;;10535779;28;20071;-72
2023/11/10 09:03:51;;;;;;;0.70;0.50;;;;;;;;;;10535499;28;20093;-72
2023/11/10 09:08:54;;;;;;;0.60;0.50;;;;;;;;;;10536917;28;20438;-73
2023/11/10 09:13:56;;;;;;;0.95;0.60;;;;;;;;;;10533580;28;20136;-74
2023/11/10 09:19:00;;;;;;;0.45;0.40;;;;;;;;;;10532666;28;20108;-73
2023/11/10 09:24:08;;;;;;;1.30;0.77;;;;;;;;;;10535086;28;20062;-73
2023/11/10 09:29:12;;;;;;;0.47;0.47;;;;;;;;;;10541397;28;20062;-73
2023/11/10 09:34:18;;;;;;;0.63;0.38;;;;;;;;;;10534814;28;20468;-74
2023/11/10 09:39:21;;;;;;;0.50;0.35;;;;;;;;;;10539216;28;20046;-72
2023/11/10 09:44:24;;;;;;;0.40;0.40;;;;;;;;;;10554184;28;20060;-72
2023/11/10 09:49:28;;;;;;;;;;;;;;;;;;10526440;28;20620;-72
2023/11/10 09:54:35;;;;;;;0.35;0.28;;;;;;;;;;10513774;28;19965;-74
2023/11/10 09:59:38;;;;;;;0.28;0.20;;;;;;;;;;10533207;28;20035;-72
2023/11/10 10:04:41;;;;;;;0.32;0.30;;;;;;;;;;10529568;28;20044;-72
2023/11/10 10:09:46;;;;;;;0.30;0.30;;;;;;;;;;10531451;28;20735;-71
2023/11/10 10:14:55;;;;;;;0.35;0.35;;;;;;;;;;10524812;28;20059;-73
2023/11/10 10:20:04;;;;;;;0.57;0.40;;;;;;;;;;10536461;28;20690;-73
2023/11/10 10:25:08;;;;;;;1.40;1.30;;;;;;;;;;10548074;27;20557;-73
2023/11/10 10:30:12;;;;;;;0.38;0.30;;;;;;;;;;10541322;28;20047;-74
2023/11/10 10:35:15;;;;;;;;;;;;;;;;;;10542904;27;20050;-73
2023/11/10 10:40:19;;;;;;;2.05;1.10;;;;;;;;;;10535452;28;19927;-75
2023/11/10 10:45:22;;;;;;;0.90;0.50;;;;;;;;;;10549075;27;20544;-75
2023/11/10 10:50:34;;;;;;;0.55;0.20;;;;;;;;;;10545885;27;20208;-74
2023/11/10 10:55:38;;;;;;;0.10;0.10;;;;;;;;;;10540825;27;20048;-74
2023/11/10 11:00:41;;;;;;;0.80;0.20;;;;;;;;;;10532676;27;20050;-74
2023/11/10 11:05:48;;;;;;;1.30;0.50;;;;;;;;;;10537332;28;20086;-74
2023/11/10 11:11:06;;;;;;;1.35;0.28;;;;;;;;;;10541035;27;20039;-72
2023/11/10 11:16:20;;;;;;;0.30;0.30;;;;;;;;;;10536710;27;20040;-73
2023/11/10 11:21:23;;;;;;;1.30;0.30;;;;;;;;;;10534703;28;20052;-74
2023/11/10 11:26:26;;;;;;;;;;;;;;;;;;10527074;27;20097;-73
2023/11/10 11:31:39;;;;;;;0.63;0.40;;;;;;;;;;10538019;27;20330;-73
2023/11/10 11:36:43;;;;;;;0.20;0.20;;;;;;;;;;10538400;27;20051;-74
2023/11/10 11:41:46;;;;;;;0.75;0.28;;;;;;;;;;10533810;27;20063;-73
2023/11/10 11:46:55;;;;;;;0.73;0.20;;;;;;;;;;10533655;28;20177;-73
2023/11/10 11:51:59;;;;;;;0.32;0.32;;;;;;;;;;10536866;27;20131;-75
2023/11/10 11:57:02;;;;;;;0.17;0.17;;;;;;;;;;10538303;28;20040;-73
2023/11/10 12:02:06;;;;;;;0.90;0.30;;;;;;;;;;10538744;28;20075;-73
2023/11/10 12:07:09;;;;;;;0.32;0.32;;;;;;;;;;10540203;27;20087;-73
2023/11/10 12:12:14;;;;;;;0.82;0.30;;;;;;;;;;10532849;28;20075;-73
2023/11/10 12:17:18;;;;;;;0.65;0.38;;;;;;;;;;10519166;28;20055;-71
2023/11/10 12:22:21;;;;;;;;;;;;;;;;;;10537219;27;20442;-73
2023/11/10 12:27:24;;;;;;;0.40;0.40;;;;;;;;;;10540208;27;19962;-73
2023/11/10 12:32:30;;;;;;;0.60;0.40;;;;;;;;;;10531160;27;20500;-73
2023/11/10 12:37:33;;;;;;;1.27;0.30;;;;;;;;;;10531274;28;20484;-71
2023/11/10 12:42:35;;;;;;;0.60;0.40;;;;;;;;;;10531181;28;20153;-72
2023/11/10 12:47:42;;;;;;;0.77;0.50;;;;;;;;;;10537054;27;20047;-71
2023/11/10 12:52:50;;;;;;;0.30;0.30;;;;;;;;;;10536294;28;20051;-72
2023/11/10 12:57:53;;;;;;;0.52;0.30;;;;;;;;;;10529988;28;20046;-73
2023/11/10 13:02:59;;;;;;;1.20;0.80;;;;;;;;;;10521628;28;20069;-72
2023/11/10 13:08:03;;;;;;;0.85;0.85;;;;;;;;;;10531271;28;20122;-72
2023/11/10 13:13:06;;;;;;;0.75;0.38;;;;;;;;;;10532059;28;20040;-72
2023/11/10 13:18:10;;;;;;;0.47;0.47;;;;;;;;;;10532177;28;20446;-73
2023/11/10 13:23:12;;;;;;;;;;;;;;;;;;10537185;28;20488;-72
2023/11/10 13:28:15;;;;;;;0.73;0.57;;;;;;;;;;10536023;28;20428;-73
2023/11/10 13:33:19;;;;;;;0.55;0.50;;;;;;;;;;10539496;28;20043;-73
2023/11/10 13:38:22;;;;;;;2.40;0.28;;;;;;;;;;10532863;28;20377;-72
2023/11/10 13:43:25;;;;;;;0.65;0.45;;;;;;;;;;10534931;28;20486;-73
2023/11/10 13:48:29;;;;;;;2.83;0.70;;;;;;;;;;10533638;28;20039;-72
2023/11/10 13:53:32;;;;;;;9.95;1.80;;;;;;;;;;10526532;28;20059;-72
2023/11/10 13:58:35;;;;;;;0.50;0.50;;;;;;;;;;10534668;28;20048;-73
2023/11/10 14:03:39;;;;;;;0.30;0.28;;;;;;;;;;10540859;27;20189;-73
2023/11/10 14:08:42;;;;;;;0.20;0.20;;;;;;;;;;10541533;28;20499;-73
2023/11/10 14:13:45;;;;;;;0.75;0.40;;;;;;;;;;10534175;28;20120;-72
2023/11/10 14:18:49;;;;;;;0.50;0.50;;;;;;;;;;10536695;27;20674;-74
2023/11/10 14:23:51;;;;;;;4.43;0.65;;;;;;;;;;10544576;27;20058;-72
2023/11/10 14:28:55;;;;;;;1.02;0.38;;;;;;;;;;10540300;28;20057;-72
2023/11/10 14:33:59;;;;;;;0.50;0.50;;;;;;;;;;10544310;27;20124;-73
2023/11/10 14:39:03;;;;;;;1.10;0.50;;;;;;;;;;10544994;28;22322;-72
2023/11/10 14:44:09;;;;;;;13.02;1.83;;;;;;;;;;10540592;28;20036;-73
2023/11/10 14:49:14;;;;;;;0.65;0.40;;;;;;;;;;10535720;27;20078;-71
2023/11/10 14:54:18;;;;;;;2.08;0.60;;;;;;;;;;10538569;27;20076;-72
2023/11/10 14:59:20;;;;;;;0.50;0.50;;;;;;;;;;10535917;27;20541;-72
2023/11/10 15:04:24;;;;;;;3.58;0.57;;;;;;;;;;10533106;28;20036;-72
2023/11/10 15:09:28;;;;;;;;;;;;;;;;;;10540993;27;20051;-72
2023/11/10 15:14:30;;;;;;;0.65;0.45;;;;;;;;;;10534523;28;19951;-72
2023/11/10 15:19:34;;;;;;;0.25;0.25;;;;;;;;;;10538845;27;20167;-72
2023/11/10 15:24:37;;;;;;;1.38;0.30;;;;;;;;;;10535927;27;20161;-73
2023/11/10 15:29:40;;;;;;;0.85;0.32;;;;;;;;;;10538210;27;20054;-73
2023/11/10 15:34:50;;;;;;;0.30;0.13;;;;;;;;;;10542564;27;20386;-73
2023/11/10 15:39:53;;;;;;;0.63;0.50;;;;;;;;;;10537688;27;20064;-73
2023/11/10 15:44:59;;;;;;;1.05;0.35;;;;;;;;;;10536515;28;20035;-72
2023/11/10 15:50:04;;;;;;;0.32;0.28;;;;;;;;;;10535737;28;20040;-74
2023/11/10 15:55:08;;;;;;;0.40;0.40;;;;;;;;;;10534849;27;20040;-71
2023/11/10 16:00:12;;;;;;;;;;;;;;;;;;10532994;27;20058;-70
2023/11/10 16:05:17;;;;;;;1.17;0.83;;;;;;;;;;10529170;27;20385;-72
2023/11/10 16:10:21;;;;;;;1.90;0.65;;;;;;;;;;10539746;28;20054;-72
2023/11/10 16:15:26;;;;;;;0.35;0.35;;;;;;;;;;10517357;28;20039;-72
2023/11/10 16:20:30;;;;;;;0.70;0.30;;;;;;;;;;10532013;28;20134;-73
2023/11/10 16:25:33;;;;;;;1.23;0.82;;;;;;;;;;10536537;28;20043;-72
2023/11/10 16:30:36;;;;;;;1.48;0.50;;;;;;;;;;10533107;28;20134;-72
2023/11/10 16:35:40;;;;;;;2.80;0.77;;;;;;;;;;10529176;28;20047;-71
2023/11/10 16:40:43;;;;;;;1.92;0.70;;;;;;;;;;10528861;28;20043;-72
2023/11/10 16:45:48;;;;;;;2.35;0.70;;;;;;;;;;10537824;27;20035;-73
2023/11/10 16:50:53;;;;;;;1.27;0.75;;;;;;;;;;10541271;27;20036;-72
2023/11/10 16:55:56;;;;;;;4.90;0.52;;;;;;;;;;10532500;27;20055;-73
2023/11/10 17:00:58;;;;;;;2.88;1.25;;;;;;;;;;10519546;27;20055;-72
2023/11/10 17:06:02;;;;;;;1.85;0.95;;;;;;;;;;10524783;28;20043;-71
2023/11/10 17:11:05;;;;;;;2.03;1.02;;;;;;;;;;10545241;27;20047;-72
2023/11/10 17:16:09;;;;;;;1.90;0.85;;;;;;;;;;10518571;28;20119;-72
2023/11/10 17:21:13;;;;;;;1.25;0.90;;;;;;;;;;10529580;28;20051;-72
2023/11/10 17:26:22;;;;;;;0.40;0.25;;;;;;;;;;10540806;28;20044;-73
2023/11/10 17:31:25;;;;;;;1.08;0.85;;;;;;;;;;10538790;28;20135;-72
2023/11/10 17:36:29;;;;;;;4.15;1.25;;;;;;;;;;10543138;28;20156;-72
2023/11/10 17:41:32;;;;;;;0.85;0.60;;;;;;;;;;10543400;28;20043;-72
2023/11/10 17:46:35;;;;;;;0.50;0.50;;;;;;;;;;10543166;28;20124;-72
2023/11/10 17:51:39;;;;;;;0.75;0.40;;;;;;;;;;10546016;27;20069;-73
2023/11/10 17:56:42;;;;;;;1.05;0.73;;;;;;;;;;10541028;27;20610;-73
2023/11/10 18:01:44;;;;;;;1.58;1.10;;;;;;;;;;10547809;27;20063;-72
2023/11/10 18:06:49;;;;;;;1.42;0.68;;;;;;;;;;10543185;27;20044;-72
2023/11/10 18:11:51;;;;;;;3.25;1.27;;;;;;;;;;10542528;28;20047;-72
2023/11/10 18:16:54;;;;;;;1.98;0.95;;;;;;;;;;10540123;27;20046;-72
2023/11/10 18:22:00;;;;;;;1.50;0.50;;;;;;;;;;10545041;27;20056;-73
2023/11/10 18:27:03;;;;;;;0.85;0.60;;;;;;;;;;10551386;27;20143;-74
2023/11/10 18:32:09;;;;;;;3.50;1.20;;;;;;;;;;10545743;27;20048;-73
2023/11/10 18:37:13;;;;;;;1.83;0.93;;;;;;;;;;10542964;28;20119;-76
2023/11/10 18:42:15;;;;;;;3.13;1.35;;;;;;;;;;10531712;27;20078;-74
2023/11/10 18:47:18;;;;;;;2.97;1.42;;;;;;;;;;10539974;27;20552;-74
2023/11/10 18:52:22;;;;;;;1.80;0.90;;;;;;;;;;10544865;27;20095;-74
2023/11/10 18:57:25;;;;;;;3.00;1.05;;;;;;;;;;10540685;27;20047;-74
2023/11/10 19:02:28;;;;;;;3.50;1.45;;;;;;;;;;10541460;27;20048;-73
2023/11/10 19:07:33;;;;;;;5.20;2.17;;;;;;;;;;10534707;28;20054;-74
2023/11/10 19:12:35;;;;;;;3.03;1.48;;;;;;;;;;10535134;27;20111;-73
2023/11/10 19:17:38;;;;;;;5.00;1.55;;;;;;;;;;10541284;27;20422;-73
2023/11/10 19:22:42;;;;;;;4.03;1.85;;;;;;;;;;10549475;27;20101;-74
2023/11/10 19:27:45;;;;;;;4.53;2.00;;;;;;;;;;10543435;27;20104;-73
2023/11/10 19:32:48;;;;;;;1.65;1.00;;;;;;;;;;10562998;28;20488;-73
2023/11/10 19:37:52;;;;;;;0.83;0.77;;;;;;;;;;10559304;28;20207;-73
2023/11/10 19:42:55;;;;;;;0.63;0.60;;;;;;;;;;10569225;27;20149;-73
2023/11/10 19:47:58;;;;;;;1.05;0.95;;;;;;;;;;10567376;27;20036;-73
2023/11/10 19:53:04;;;;;;;2.28;0.98;;;;;;;;;;10558142;27;20047;-73
2023/11/10 19:58:07;;;;;;;2.17;1.00;;;;;;;;;;10559158;27;20032;-73
2023/11/10 20:03:13;;;;;;;0.35;0.32;;;;;;;;;;10562513;27;20062;-72
2023/11/10 20:08:17;;;;;;;2.70;0.95;;;;;;;;;;10553715;27;20062;-72
2023/11/10 20:13:23;;;;;;;1.45;0.60;;;;;;;;;;10557308;27;20128;-72
2023/11/10 20:18:34;;;;;;;2.90;0.73;;;;;;;;;;10564507;27;20111;-72
2023/11/10 20:23:38;;;;;;;1.27;0.85;;;;;;;;;;10566008;28;20044;-73
2023/11/10 20:28:41;;;;;;;1.02;0.43;;;;;;;;;;10566102;27;20102;-73
2023/11/10 20:33:44;;;;;;;4.68;1.60;;;;;;;;;;10566405;27;20063;-73
2023/11/10 20:38:49;;;;;;;2.63;0.80;;;;;;;;;;10555896;27;20042;-72
2023/11/10 20:43:53;;;;;;;1.15;0.60;;;;;;;;;;10565073;28;20039;-72
2023/11/10 20:48:55;;;;;;;6.68;1.33;;;;;;;;;;10558841;27;20441;-72
2023/11/10 20:54:07;;;;;;;2.78;1.10;;;;;;;;;;10556954;28;20128;-73
2023/11/10 20:59:10;;;;;;;1.08;0.60;;;;;;;;;;10539848;27;20128;-72
2023/11/10 21:04:13;;;;;;;0.95;0.88;;;;;;;;;;10539910;28;20040;-73
2023/11/10 21:09:17;;;;;;;2.33;1.30;;;;;;;;;;10541623;27;20044;-72
2023/11/10 21:14:20;;;;;;;0.70;0.50;;;;;;;;;;10544464;28;20120;-73
2023/11/10 21:19:22;;;;;;;1.42;0.68;;;;;;;;;;10550018;28;20040;-73
2023/11/10 21:24:28;;;;;;;3.35;1.30;;;;;;;;;;10538478;28;20607;-72
2023/11/10 21:29:31;;;;;;;2.90;1.40;;;;;;;;;;10537408;28;20044;-73
2023/11/10 21:34:42;;;;;;;1.75;0.90;;;;;;;;;;10547501;28;20048;-73
2023/11/10 21:39:46;;;;;;;2.33;1.23;;;;;;;;;;10535268;28;20132;-73
2023/11/10 21:44:49;;;;;;;0.98;0.85;;;;;;;;;;10534762;28;20508;-73
2023/11/10 21:49:52;;;;;;;2.53;0.68;;;;;;;;;;10532649;28;20909;-72
2023/11/10 21:54:58;;;;;;;2.90;1.05;;;;;;;;;;10539457;28;20040;-71
2023/11/10 22:00:00;;;;;;;0.40;0.40;;;;;;;;;;10532140;28;20083;-73
2023/11/10 22:05:03;;;;;;;2.08;1.05;;;;;;;;;;10534667;28;20079;-71
2023/11/10 22:10:09;;;;;;;0.32;0.32;;;;;;;;;;10535848;28;20051;-73
2023/11/10 22:15:16;;;;;;;2.10;0.70;;;;;;;;;;10536121;28;20188;-73
2023/11/10 22:20:18;;;;;;;3.33;0.75;;;;;;;;;;10547260;27;20046;-72
2023/11/10 22:25:22;;;;;;;0.35;0.28;;;;;;;;;;10542119;27;20115;-71
2023/11/10 22:30:25;;;;;;;0.57;0.47;;;;;;;;;;10541803;27;20067;-71
2023/11/10 22:35:28;;;;;;;0.90;0.52;;;;;;;;;;10536086;28;20096;-72
2023/11/10 22:40:32;;;;;;;7.28;2.92;;;;;;;;;;10538249;27;20081;-75
2023/11/10 22:45:34;;;;;;;2.20;1.17;;;;;;;;;;10543152;27;20139;-72
2023/11/10 22:50:37;;;;;;;2.08;0.82;;;;;;;;;;10538176;27;20084;-72
2023/11/10 22:55:41;;;;;;;1.45;0.70;;;;;;;;;;10541717;28;20504;-74
2023/11/10 23:00:45;;;;;;;1.55;0.73;;;;;;;;;;10541011;27;20101;-73
2023/11/10 23:05:47;;;;;;;0.70;0.63;;;;;;;;;;10532949;28;20055;-71
2023/11/10 23:10:52;;;;;;;1.20;0.90;;;;;;;;;;10540383;27;20166;-72
2023/11/10 23:15:54;;;;;;;2.20;0.98;;;;;;;;;;10539895;28;20046;-72
2023/11/10 23:20:57;;;;;;;0.57;0.30;;;;;;;;;;10525859;27;20586;-71
2023/11/10 23:26:01;;;;;;;4.13;1.00;;;;;;;;;;10548628;27;20046;-71
2023/11/10 23:31:07;;;;;;;1.45;0.65;;;;;;;;;;10536465;28;20063;-72
2023/11/10 23:36:11;;;;;;;;;;;;;;;;;;10538913;27;20140;-72
2023/11/10 23:41:17;;;;;;;1.40;0.75;;;;;;;;;;10541512;28;20011;-73
2023/11/10 23:46:21;;;;;;;1.02;0.57;;;;;;;;;;10537354;27;20192;-71
2023/11/10 23:51:23;;;;;;;2.58;1.02;;;;;;;;;;10534822;28;20051;-72
2023/11/10 23:56:28;;;;;;;2.30;0.98;;;;;;;;;;10513321;27;20042;-71
